Time;durP1;ratioP1;P1;durP2;ratioP2;P2;SDS_P1;SDS_P2;PMS_P1;PMS_P2;Temp;Humidity;BMP_temperature;BMP_pressure;BME280_temperature;BME280_humidity;BME280_pressure;Samples;Min_cycle;Max_cycle;Signal;HPM_P1;HPM_P2
2022/11/17 00:01:22;;;;;;;60.67;33.63;;;;;;;10.30;100.00;93461.88;5066892;28;20237;-79
2022/11/17 00:03:50;;;;;;;60.60;34.20;;;;;;;10.31;100.00;93458.22;5066511;28;20216;-79
2022/11/17 00:06:19;;;;;;;58.83;33.37;;;;;;;10.27;100.00;93455.31;5068320;28;20227;-79
2022/11/17 00:08:46;;;;;;;60.37;32.63;;;;;;;10.27;100.00;93451.19;5067230;28;20232;-78
2022/11/17 00:11:14;;;;;;;58.30;32.10;;;;;;;10.22;100.00;93465.66;5065815;28;20197;-79
2022/11/17 00:16:26;;;;;;;59.10;30.03;;;;;;;10.15;100.00;93449.53;5065678;28;20327;-79
2022/11/17 00:21:37;;;;;;;52.20;30.60;;;;;;;10.08;100.00;93453.28;5066152;28;20730;-79
2022/11/17 00:24:05;;;;;;;56.53;32.07;;;;;;;9.96;100.00;93432.66;5064852;28;20679;-79
2022/11/17 00:27:00;;;;;;;58.77;32.80;;;;;;;10.06;100.00;93444.97;5065527;28;20216;-79
2022/11/17 00:29:22;;;;;;;57.90;33.03;;;;;;;10.16;100.00;93451.06;5064839;28;20251;-79
2022/11/17 00:34:34;;;;;;;61.03;32.30;;;;;;;10.07;100.00;93446.56;5065940;28;20200;-80
2022/11/17 00:37:01;;;;;;;57.47;31.77;;;;;;;10.05;100.00;93464.16;5065724;28;20204;-79
2022/11/17 00:39:27;;;;;;;62.30;32.73;;;;;;;10.02;100.00;93451.66;5066135;28;20194;-79
2022/11/17 00:41:56;;;;;;;72.70;36.77;;;;;;;10.08;100.00;93441.09;5065206;28;20738;-78
2022/11/17 00:44:23;;;;;;;65.63;35.50;;;;;;;10.08;100.00;93448.09;5066792;28;20676;-79
2022/11/17 00:46:49;;;;;;;58.47;31.07;;;;;;;9.96;100.00;93437.06;5066828;28;20201;-78
2022/11/17 00:49:16;;;;;;;54.70;31.30;;;;;;;10.00;100.00;93444.13;5065322;28;20224;-78
2022/11/17 00:51:43;;;;;;;57.23;32.47;;;;;;;9.92;100.00;93428.22;5064955;28;20201;-78
2022/11/17 00:54:12;;;;;;;59.80;32.17;;;;;;;10.03;100.00;93433.28;5065738;28;20185;-78
2022/11/17 00:56:39;;;;;;;62.03;31.73;;;;;;;10.04;100.00;93424.44;5067368;28;20651;-78
2022/11/17 00:59:07;;;;;;;60.17;34.13;;;;;;;9.99;100.00;93426.19;5064672;28;20198;-79
2022/11/17 01:01:34;;;;;;;59.60;33.67;;;;;;;10.05;100.00;93427.81;5065370;28;20571;-79
2022/11/17 01:04:02;;;;;;;63.00;33.33;;;;;;;9.96;100.00;93424.09;5065660;28;20272;-78
2022/11/17 01:06:31;;;;;;;59.77;33.83;;;;;;;9.89;100.00;93410.53;5068687;28;20263;-79
2022/11/17 01:09:00;;;;;;;62.87;35.80;;;;;;;9.86;100.00;93418.81;5068807;28;20322;-79
2022/11/17 01:11:28;;;;;;;71.67;37.93;;;;;;;9.83;100.00;93398.53;5067597;28;20198;-80
2022/11/17 01:13:57;;;;;;;73.07;37.73;;;;;;;9.94;100.00;93415.78;5068182;28;20623;-80
2022/11/17 01:16:26;;;;;;;68.40;36.30;;;;;;;9.90;100.00;93412.88;5068056;28;20591;-79
2022/11/17 01:18:53;;;;;;;61.27;35.60;;;;;;;9.93;100.00;93415.00;5069903;28;20207;-81
2022/11/17 01:21:23;;;;;;;64.93;36.20;;;;;;;9.91;100.00;93421.44;5068040;28;21276;-79
2022/11/17 01:23:53;;;;;;;63.63;35.07;;;;;;;9.81;100.00;93411.78;5066703;28;20209;-80
2022/11/17 01:26:22;;;;;;;61.23;34.40;;;;;;;9.85;100.00;93396.47;5066756;28;20679;-81
2022/11/17 01:28:49;;;;;;;68.23;35.70;;;;;;;9.87;100.00;93422.97;5067259;28;20212;-80
2022/11/17 01:31:18;;;;;;;59.30;31.87;;;;;;;9.86;100.00;93409.22;5068168;28;20960;-79
2022/11/17 01:33:47;;;;;;;60.57;32.43;;;;;;;9.83;100.00;93396.75;5067425;28;20247;-80
2022/11/17 01:36:15;;;;;;;58.10;32.67;;;;;;;9.80;100.00;93394.63;5067924;28;20205;-81
2022/11/17 01:38:43;;;;;;;57.77;32.80;;;;;;;9.84;100.00;93400.88;5067177;28;20259;-81
2022/11/17 01:41:15;;;;;;;57.40;30.67;;;;;;;9.78;100.00;93393.31;5067665;28;20619;-81
2022/11/17 01:43:44;;;;;;;48.97;29.77;;;;;;;9.82;100.00;93396.97;5066912;28;20193;-82
2022/11/17 01:46:27;;;;;;;52.93;30.10;;;;;;;9.88;100.00;93390.81;5067041;28;20206;-82
2022/11/17 01:49:00;;;;;;;53.90;29.43;;;;;;;9.86;100.00;93393.66;5068067;28;20197;-81
2022/11/17 01:51:30;;;;;;;50.07;28.20;;;;;;;9.83;100.00;93377.78;5064368;28;20213;-80
2022/11/17 01:53:57;;;;;;;52.10;29.60;;;;;;;9.81;100.00;93380.63;5069020;28;20209;-82
2022/11/17 01:56:28;;;;;;;49.50;28.33;;;;;;;9.77;100.00;93373.56;5068343;28;20197;-82
2022/11/17 01:59:01;;;;;;;50.90;29.07;;;;;;;9.68;100.00;93370.63;5064832;28;20551;-80
2022/11/17 02:01:28;;;;;;;47.60;27.43;;;;;;;9.72;100.00;93368.34;5071278;28;20212;-80
2022/11/17 02:03:56;;;;;;;49.23;27.90;;;;;;;9.78;100.00;93364.78;5071320;28;20210;-80
2022/11/17 02:06:29;;;;;;;53.83;26.53;;;;;;;9.72;100.00;93366.53;5073179;28;20197;-80
2022/11/17 02:08:57;;;;;;;48.70;25.83;;;;;;;9.78;100.00;93362.97;5071183;28;20200;-80
2022/11/17 02:11:26;;;;;;;49.17;26.53;;;;;;;9.77;100.00;93366.56;5071201;28;20197;-80
2022/11/17 02:13:55;;;;;;;47.20;27.03;;;;;;;9.84;100.00;93374.94;5070296;28;20208;-81
2022/11/17 02:16:22;;;;;;;47.63;26.80;;;;;;;9.83;100.00;93377.78;5070839;28;20206;-81
2022/11/17 02:18:49;;;;;;;43.67;25.70;;;;;;;9.83;100.00;93368.19;5072281;28;20208;-81
2022/11/17 02:21:48;;;;;;;42.20;25.30;;;;;;;9.86;100.00;93375.50;5071058;28;20217;-80
2022/11/17 02:24:46;;;;;;;44.13;25.63;;;;;;;9.86;100.00;93378.09;5064732;28;20198;-80
2022/11/17 02:27:55;;;;;;;44.03;25.43;;;;;;;9.89;100.00;93369.81;5069259;28;20204;-79
2022/11/17 02:30:24;;;;;;;43.40;24.93;;;;;;;9.84;100.00;93361.97;5057828;28;20197;-80
2022/11/17 02:33:02;;;;;;;42.57;24.37;;;;;;;9.85;100.00;93360.94;5070276;28;20201;-80
2022/11/17 02:35:39;;;;;;;44.03;25.77;;;;;;;9.86;100.00;93372.09;5068136;28;20213;-79
2022/11/17 02:38:16;;;;;;;45.30;25.87;;;;;;;9.74;100.00;93359.28;5072083;28;20189;-81
2022/11/17 02:40:48;;;;;;;42.87;25.73;;;;;;;9.73;100.00;93357.69;5070685;28;20199;-80
2022/11/17 02:46:08;;;;;;;43.27;23.77;;;;;;;9.72;100.00;93350.97;5070689;28;20201;-80
2022/11/17 02:48:39;;;;;;;43.90;24.07;;;;;;;9.61;100.00;93339.69;5070643;28;20198;-80
2022/11/17 02:51:10;;;;;;;44.00;23.80;;;;;;;9.61;100.00;93336.31;5070968;28;20291;-80
2022/11/17 02:53:39;;;;;;;38.87;23.27;;;;;;;9.65;100.00;93338.19;5071635;28;20193;-80
2022/11/17 02:56:07;;;;;;;49.47;24.53;;;;;;;9.81;100.00;93338.34;5070459;28;20201;-82
2022/11/17 02:58:34;;;;;;;39.23;23.57;;;;;;;9.80;100.00;93339.34;5070201;28;20205;-80
2022/11/17 03:01:25;;;;;;;39.80;23.47;;;;;;;9.76;100.00;93346.06;5069542;28;20237;-80
2022/11/17 03:04:08;;;;;;;38.90;23.53;;;;;;;9.88;100.00;93351.88;5068918;28;20197;-82
2022/11/17 03:06:45;;;;;;;42.60;23.67;;;;;;;9.90;100.00;93353.19;5069432;28;20921;-82
2022/11/17 03:09:19;;;;;;;38.10;24.10;;;;;;;9.88;100.00;93341.50;5070670;28;20197;-82
2022/11/17 03:11:50;;;;;;;37.73;23.00;;;;;;;9.82;100.00;93358.84;5070075;28;20212;-84
2022/11/17 03:14:25;;;;;;;40.83;23.47;;;;;;;9.89;100.00;93362.03;5070908;28;21077;-82
2022/11/17 03:17:00;;;;;;;36.60;22.93;;;;;;;9.92;100.00;93343.38;5069499;28;20560;-81
2022/11/17 03:19:32;;;;;;;37.27;22.47;;;;;;;9.83;100.00;93331.88;5070831;28;20216;-82
2022/11/17 03:22:09;;;;;;;40.17;22.83;;;;;;;9.92;100.00;93327.03;5070588;28;20209;-81
2022/11/17 03:24:40;;;;;;;39.60;22.80;;;;;;;9.90;100.00;93323.91;5068247;28;20197;-82
2022/11/17 03:27:14;;;;;;;35.80;22.30;;;;;;;9.96;100.00;93352.22;5068953;28;20251;-83
2022/11/17 03:29:44;;;;;;;39.47;22.63;;;;;;;10.04;100.00;93348.41;5069654;28;20206;-81
2022/11/17 03:32:14;;;;;;;38.40;22.20;;;;;;;9.88;100.00;93350.06;5069536;28;20568;-82
2022/11/17 03:34:46;;;;;;;38.83;22.00;;;;;;;9.89;100.00;93358.66;5070812;28;20204;-81
2022/11/17 03:37:15;;;;;;;37.03;22.80;;;;;;;9.91;100.00;93356.59;5068521;28;20629;-82
2022/11/17 03:39:45;;;;;;;33.53;21.70;;;;;;;9.91;100.00;93367.75;5069453;28;20651;-82
2022/11/17 03:42:15;;;;;;;36.07;22.97;;;;;;;9.89;100.00;93359.44;5069205;28;20229;-82
2022/11/17 03:44:45;;;;;;;38.93;24.43;;;;;;;9.87;100.00;93358.88;5070422;28;20190;-81
2022/11/17 03:47:16;;;;;;;46.30;27.80;;;;;;;9.94;100.00;93359.47;5069270;28;20224;-79
2022/11/17 03:49:48;;;;;;;46.77;28.63;;;;;;;9.94;100.00;93353.50;5068124;28;20244;-79
2022/11/17 03:52:16;;;;;;;54.27;28.23;;;;;;;9.99;100.00;93351.72;5067814;28;20205;-80
2022/11/17 03:54:43;;;;;;;45.73;29.33;;;;;;;10.00;100.00;93344.72;5068632;28;20201;-80
2022/11/17 03:57:15;;;;;;;50.60;30.27;;;;;;;10.10;100.00;93345.59;5067277;28;20200;-80
2022/11/17 03:59:51;;;;;;;45.10;28.77;;;;;;;10.07;100.00;93327.16;5067790;28;20545;-79
2022/11/17 04:02:22;;;;;;;46.43;28.60;;;;;;;10.07;100.00;93332.34;5066865;28;20221;-80
2022/11/17 04:05:07;;;;;;;44.77;26.70;;;;;;;10.15;100.00;93340.50;5066917;28;20285;-81
2022/11/17 04:07:34;;;;;;;45.60;26.40;;;;;;;10.12;100.00;93337.56;5067191;28;20197;-80
2022/11/17 04:10:01;;;;;;;42.70;26.30;;;;;;;10.04;100.00;93338.78;5071114;28;20204;-81
2022/11/17 04:17:59;;;;;;;40.43;24.87;;;;;;;9.99;100.00;93322.41;5066030;28;20251;-80
2022/11/17 04:20:25;;;;;;;40.03;23.40;;;;;;;9.96;100.00;93321.09;5069976;28;20202;-80
2022/11/17 04:28:37;;;;;;;37.47;22.27;;;;;;;9.86;100.00;93313.22;5152785;27;20224;-80
2022/11/17 04:31:09;;;;;;;37.43;21.70;;;;;;;9.90;100.00;93319.47;5154283;27;20182;-80
2022/11/17 04:33:37;;;;;;;34.10;20.33;;;;;;;9.91;100.00;93320.25;5150248;27;20205;-81
2022/11/17 04:36:05;;;;;;;33.67;20.37;;;;;;;9.87;100.00;93312.19;5151110;27;20202;-79
2022/11/17 04:38:32;;;;;;;34.20;21.67;;;;;;;9.87;100.00;93316.59;5151114;27;20195;-79
2022/11/17 04:43:50;;;;;;;35.87;20.93;;;;;;;9.99;100.00;93315.41;5146335;27;21555;-78
2022/11/17 04:46:18;;;;;;;39.13;21.13;;;;;;;10.03;100.00;93310.50;5144999;27;20199;-77
2022/11/17 04:48:46;;;;;;;36.57;21.77;;;;;;;9.97;100.00;93290.72;5147618;27;20195;-78
2022/11/17 04:51:13;;;;;;;37.13;22.33;;;;;;;10.03;100.00;93303.50;5148072;27;20194;-78
2022/11/17 04:53:41;;;;;;;39.70;22.10;;;;;;;10.06;100.00;93295.22;5146131;27;20210;-79
2022/11/17 04:56:09;;;;;;;37.80;22.33;;;;;;;10.03;100.00;93285.34;5150597;27;20198;-80
2022/11/17 04:58:36;;;;;;;39.43;22.97;;;;;;;9.88;100.00;93293.00;5151489;27;20209;-80
2022/11/17 05:03:49;;;;;;;33.53;20.73;;;;;;;9.93;100.00;93290.44;5148451;27;20684;-81
2022/11/17 05:06:18;;;;;;;40.97;22.50;;;;;;;9.93;100.00;93293.03;5149923;27;20198;-80
2022/11/17 05:08:46;;;;;;;40.13;21.73;;;;;;;10.00;100.00;93285.84;5150604;27;20195;-79
2022/11/17 05:14:01;;;;;;;33.03;20.43;;;;;;;10.03;100.00;93284.56;5146608;27;20241;-79
2022/11/17 05:19:16;;;;;;;35.17;20.10;;;;;;;10.01;100.00;93276.25;5146293;27;20322;-80
2022/11/17 05:21:42;;;;;;;33.30;19.47;;;;;;;10.07;100.00;93278.59;5148118;27;20194;-80
2022/11/17 05:24:08;;;;;;;33.43;19.13;;;;;;;9.98;100.00;93269.75;5148869;27;20218;-80
2022/11/17 05:26:37;;;;;;;30.97;18.07;;;;;;;9.96;100.00;93265.81;5151077;27;20209;-79
2022/11/17 05:29:06;;;;;;;27.00;16.20;;;;;;;9.98;100.00;93274.13;5147671;27;20190;-79
2022/11/17 05:31:33;;;;;;;27.10;15.97;;;;;;;9.90;100.00;93261.63;5145874;27;20194;-79
2022/11/17 05:34:01;;;;;;;28.70;16.37;;;;;;;9.95;100.00;93262.44;5147224;27;20210;-79
2022/11/17 05:36:29;;;;;;;28.60;16.10;;;;;;;9.78;100.00;93248.81;5136860;27;20820;-79
2022/11/17 05:38:56;;;;;;;24.97;14.93;;;;;;;9.88;100.00;93258.47;5136429;27;20192;-80
2022/11/17 05:41:24;;;;;;;28.67;15.77;;;;;;;9.85;100.00;93269.34;5134409;27;20245;-79
2022/11/17 05:43:52;;;;;;;27.97;15.73;;;;;;;9.85;100.00;93264.16;5136907;27;20289;-79
2022/11/17 05:46:20;;;;;;;27.07;15.07;;;;;;;9.95;100.00;93272.81;5131226;27;20256;-79
2022/11/17 05:48:48;;;;;;;26.10;14.73;;;;;;;9.98;100.00;93276.72;5132208;27;20203;-79
2022/11/17 05:51:16;;;;;;;24.87;14.30;;;;;;;9.94;100.00;93284.22;5138704;27;20225;-79
2022/11/17 05:53:43;;;;;;;25.13;14.80;;;;;;;9.98;100.00;93282.72;5133143;27;20567;-80
2022/11/17 05:56:27;;;;;;;23.67;14.83;;;;;;;9.92;100.00;93277.72;5137389;27;20199;-80
2022/11/17 05:59:01;;;;;;;24.47;14.57;;;;;;;9.92;100.00;93282.91;5134103;27;20274;-80
2022/11/17 06:01:29;;;;;;;23.67;15.13;;;;;;;9.95;100.00;93277.22;5133980;27;20195;-80
2022/11/17 06:04:02;;;;;;;25.57;14.87;;;;;;;9.96;100.00;93269.19;5137285;27;20595;-79
2022/11/17 06:06:32;;;;;;;26.87;15.77;;;;;;;9.99;100.00;93267.91;5104080;27;20362;-80
2022/11/17 06:08:59;;;;;;;28.57;15.60;;;;;;;10.09;100.00;93273.19;5113243;27;20202;-78
2022/11/17 06:11:26;;;;;;;25.00;15.90;;;;;;;10.16;100.00;93287.53;5130872;27;20188;-79
2022/11/17 06:13:53;;;;;;;24.87;15.57;;;;;;;10.18;100.00;93292.50;5126874;27;20199;-78
2022/11/17 06:16:25;;;;;;;25.03;15.83;;;;;;;10.22;100.00;93299.53;5130711;27;20191;-80
2022/11/17 06:18:56;;;;;;;27.57;14.50;;;;;;;10.22;100.00;93298.72;5128554;27;20191;-78
2022/11/17 06:21:23;;;;;;;27.03;15.03;;;;;;;10.20;100.00;93311.19;5127757;27;20199;-79
2022/11/17 06:24:06;;;;;;;25.03;15.00;;;;;;;10.25;100.00;93332.78;5126686;27;20893;-79
2022/11/17 06:26:35;;;;;;;27.80;14.93;;;;;;;10.15;100.00;93331.91;5129718;27;20234;-79
2022/11/17 06:29:04;;;;;;;26.23;14.37;;;;;;;10.09;100.00;93351.84;5128325;27;20206;-79
2022/11/17 06:31:32;;;;;;;25.30;15.13;;;;;;;10.19;100.00;93358.94;5126585;27;20203;-80
2022/11/17 06:34:01;;;;;;;24.60;15.40;;;;;;;10.24;100.00;93371.97;5126783;27;20541;-80
2022/11/17 06:36:30;;;;;;;23.87;15.37;;;;;;;10.24;100.00;93387.56;5125278;27;20710;-80
2022/11/17 06:38:57;;;;;;;33.57;16.47;;;;;;;10.21;100.00;93386.25;5131778;27;20195;-80
2022/11/17 06:41:24;;;;;;;28.83;16.47;;;;;;;10.21;100.00;93396.63;5130213;27;20191;-78
2022/11/17 06:43:51;;;;;;;30.03;17.07;;;;;;;10.24;100.00;93411.69;5129229;27;20199;-80
2022/11/17 06:46:18;;;;;;;28.77;15.60;;;;;;;10.06;100.00;93395.66;5129754;27;20223;-79
2022/11/17 06:48:47;;;;;;;28.37;16.30;;;;;;;10.20;100.00;93418.41;5127093;27;20214;-80
2022/11/17 06:51:14;;;;;;;28.47;17.00;;;;;;;10.20;100.00;93418.41;5133878;27;20202;-80
2022/11/17 06:53:40;;;;;;;27.57;16.37;;;;;;;10.24;100.00;93455.81;5127111;27;20633;-79
2022/11/17 06:56:08;;;;;;;30.30;19.13;;;;;;;10.31;100.00;93491.19;5130510;27;20205;-81
2022/11/17 06:58:37;;;;;;;33.37;20.43;;;;;;;10.29;100.00;93465.47;5128505;27;20795;-79
2022/11/17 07:01:06;;;;;;;36.10;23.17;;;;;;;10.43;100.00;93471.06;5131140;27;20203;-80
2022/11/17 07:03:35;;;;;;;32.10;17.83;;;;;;;10.45;100.00;93471.59;5131979;27;20685;-80
2022/11/17 07:06:06;;;;;;;19.43;12.40;;;;;;;10.59;100.00;93476.13;5126840;27;20769;-80
2022/11/17 07:08:34;;;;;;;14.67;8.20;;;;;;;10.62;100.00;93459.31;5134134;27;20214;-81
2022/11/17 07:11:03;;;;;;;13.97;7.53;;;;;;;10.80;100.00;93453.72;5131268;27;20198;-81
2022/11/17 07:13:31;;;;;;;13.83;5.53;;;;;;;10.93;100.00;93449.91;5132504;27;20188;-79
2022/11/17 07:16:03;;;;;;;9.20;5.83;;;;;;;11.02;100.00;93433.63;5127865;27;20203;-83
2022/11/17 07:18:30;;;;;;;6.57;3.90;;;;;;;11.09;100.00;93418.56;5130916;27;20195;-82
2022/11/17 07:21:01;;;;;;;4.30;3.10;;;;;;;11.15;100.00;93401.97;5133339;27;21009;-80
2022/11/17 07:23:30;;;;;;;4.03;3.07;;;;;;;11.14;100.00;93376.97;5128408;27;20203;-79
2022/11/17 07:25:57;;;;;;;4.67;3.00;;;;;;;11.22;100.00;93365.34;5131743;27;20219;-84
2022/11/17 07:28:24;;;;;;;7.83;3.47;;;;;;;11.24;100.00;93342.47;5134271;27;20207;-84
2022/11/17 07:30:54;;;;;;;4.87;3.27;;;;;;;11.17;100.00;93315.91;5133845;27;20756;-84
2022/11/17 07:33:21;;;;;;;6.40;3.30;;;;;;;11.21;100.00;93299.53;5136157;27;20201;-84
2022/11/17 07:35:48;;;;;;;7.77;4.27;;;;;;;11.21;100.00;93358.56;5134970;27;20218;-83
2022/11/17 07:38:15;;;;;;;5.83;3.77;;;;;;;11.17;100.00;93357.50;5135252;27;20226;-85
2022/11/17 07:40:43;;;;;;;7.47;4.97;;;;;;;11.04;100.00;93355.38;5133108;27;20205;-84
2022/11/17 07:43:10;;;;;;;11.70;6.07;;;;;;;11.04;100.00;93348.34;5134386;27;20199;-85
2022/11/17 07:45:37;;;;;;;10.40;4.57;;;;;;;11.07;100.00;93340.03;5135597;27;20220;-86
2022/11/17 07:48:05;;;;;;;13.07;5.87;;;;;;;11.06;100.00;93332.50;5133526;27;20195;-85
2022/11/17 07:50:34;;;;;;;5.03;3.87;;;;;;;11.16;100.00;93324.75;5136991;27;20259;-86
2022/11/17 07:53:01;;;;;;;11.83;5.57;;;;;;;11.12;100.00;93316.66;5134010;27;20208;-87
2022/11/17 07:55:28;;;;;;;9.20;4.73;;;;;;;11.16;100.00;93337.75;5129057;27;20722;-84
2022/11/17 07:57:58;;;;;;;6.60;3.67;;;;;;;11.17;100.00;93337.47;5134969;27;20197;-84
2022/11/17 08:00:25;;;;;;;8.27;2.70;;;;;;;11.17;100.00;93326.28;5131271;27;20287;-86
2022/11/17 08:02:52;;;;;;;6.10;2.97;;;;;;;11.31;100.00;93341.19;5131752;27;20241;-85
2022/11/17 08:05:19;;;;;;;4.47;2.90;;;;;;;11.46;100.00;93360.50;5132612;27;20223;-84
2022/11/17 08:07:46;;;;;;;4.70;3.40;;;;;;;11.59;100.00;93354.81;5132384;27;20215;-80
2022/11/17 08:10:13;;;;;;;8.40;4.80;;;;;;;11.65;100.00;93353.78;5138300;27;20210;-81
2022/11/17 08:12:42;;;;;;;12.93;5.53;;;;;;;11.70;100.00;93359.03;5132692;27;20206;-80
2022/11/17 08:15:10;;;;;;;5.80;3.97;;;;;;;11.93;100.00;93377.56;5136392;27;20235;-84
2022/11/17 08:17:37;;;;;;;6.33;4.20;;;;;;;12.10;100.00;93384.38;5133251;27;20206;-83
2022/11/17 08:20:12;;;;;;;8.40;4.90;;;;;;;12.14;100.00;93388.81;5133562;27;20191;-86
2022/11/17 08:22:43;;;;;;;6.97;4.17;;;;;;;12.27;100.00;93400.53;5131006;27;20317;-84
2022/11/17 08:25:10;;;;;;;5.07;3.33;;;;;;;12.24;100.00;93388.81;5134873;27;20319;-83
2022/11/17 08:27:37;;;;;;;6.77;3.97;;;;;;;12.35;100.00;93403.41;5136232;27;20202;-84
2022/11/17 08:30:06;;;;;;;3.97;2.43;;;;;;;12.41;100.00;93404.19;5137383;27;20871;-80
2022/11/17 08:32:34;;;;;;;2.43;1.97;;;;;;;12.58;100.00;93419.59;5132873;27;20227;-81
2022/11/17 08:35:02;;;;;;;2.07;1.40;;;;;;;12.64;100.00;93413.34;5132449;27;20263;-80
2022/11/17 08:37:29;;;;;;;1.60;1.43;;;;;;;12.65;100.00;93413.06;5134222;27;20205;-83
2022/11/17 08:39:56;;;;;;;4.23;2.00;;;;;;;12.72;100.00;93413.59;5131397;27;20203;-79
2022/11/17 08:42:23;;;;;;;3.47;1.83;;;;;;;12.83;100.00;93411.78;5131198;27;20209;-81
2022/11/17 08:44:50;;;;;;;1.80;1.40;;;;;;;12.94;100.00;93418.53;5132332;27;20230;-83
2022/11/17 08:47:17;;;;;;;1.50;1.40;;;;;;;12.94;100.00;93416.72;5137527;27;20679;-84
2022/11/17 08:49:45;;;;;;;2.30;1.60;;;;;;;13.09;100.00;93410.72;5133751;27;20195;-82
2022/11/17 08:52:12;;;;;;;3.80;2.27;;;;;;;13.27;100.00;93414.59;5132197;27;20259;-83
2022/11/17 08:54:38;;;;;;;1.80;1.43;;;;;;;13.40;98.03;93419.25;5125811;27;20261;-77
2022/11/17 08:57:05;;;;;;;2.63;1.40;;;;;;;13.45;98.69;93416.63;5121647;27;20581;-78
2022/11/17 08:59:32;;;;;;;1.90;1.70;;;;;;;13.50;98.44;93417.41;5128177;27;20194;-78
2022/11/17 09:01:59;;;;;;;1.70;1.57;;;;;;;13.57;98.94;93412.69;5127405;27;20211;-78
2022/11/17 09:04:27;;;;;;;1.57;1.47;;;;;;;13.53;97.38;93410.88;5128653;27;20218;-77
2022/11/17 09:06:55;;;;;;;3.33;2.37;;;;;;;13.56;98.33;93418.19;5128402;27;20564;-77
2022/11/17 09:09:22;;;;;;;5.60;3.73;;;;;;;13.67;97.33;93426.75;5130304;27;20198;-77
2022/11/17 09:11:49;;;;;;;3.43;2.30;;;;;;;13.77;96.58;93422.25;5128744;27;20197;-76
2022/11/17 09:14:15;;;;;;;1.80;1.50;;;;;;;13.86;93.74;93419.88;5131449;27;21012;-76
2022/11/17 09:16:42;;;;;;;5.13;2.40;;;;;;;13.87;94.43;93416.22;5133989;27;20897;-76
2022/11/17 09:19:09;;;;;;;5.63;3.53;;;;;;;13.89;93.33;93416.72;5137312;27;20203;-76
2022/11/17 09:21:36;;;;;;;4.73;2.80;;;;;;;13.91;93.04;93412.81;5134189;27;20206;-76
2022/11/17 09:24:05;;;;;;;3.63;2.60;;;;;;;13.86;93.41;93410.22;5138518;27;20238;-78
2022/11/17 09:26:32;;;;;;;4.80;3.40;;;;;;;13.79;93.25;93396.69;5132877;27;20215;-80
2022/11/17 09:29:01;;;;;;;4.53;3.00;;;;;;;13.84;92.90;93407.09;5133968;27;20268;-80
2022/11/17 09:31:29;;;;;;;4.43;3.40;;;;;;;13.88;93.10;93396.91;5133646;27;20690;-78
2022/11/17 09:33:56;;;;;;;7.03;4.63;;;;;;;13.87;93.90;93411.00;5134899;27;20220;-76
2022/11/17 09:36:22;;;;;;;5.67;4.00;;;;;;;13.90;93.67;93415.69;5136252;27;20195;-77
2022/11/17 09:38:49;;;;;;;6.17;4.17;;;;;;;13.87;93.22;93409.19;5134668;27;20199;-80
2022/11/17 09:41:25;;;;;;;6.23;4.40;;;;;;;13.88;94.60;93404.75;5135444;27;20244;-76
2022/11/17 09:44:08;;;;;;;7.73;4.33;;;;;;;13.88;93.51;93404.75;5133471;27;20195;-76
2022/11/17 09:46:51;;;;;;;10.33;5.33;;;;;;;13.84;94.94;93407.09;5133087;27;20233;-81
2022/11/17 09:49:30;;;;;;;6.73;4.67;;;;;;;13.87;94.57;93403.97;5137893;27;20198;-81
2022/11/17 09:52:00;;;;;;;9.13;4.67;;;;;;;13.99;93.36;93399.19;5134006;27;20199;-77
2022/11/17 09:54:42;;;;;;;8.97;5.10;;;;;;;14.04;93.81;93409.63;5134889;27;20183;-77
2022/11/17 09:57:18;;;;;;;8.63;4.63;;;;;;;14.10;93.66;93411.16;5132044;27;20277;-77
2022/11/17 09:59:45;;;;;;;7.83;4.60;;;;;;;14.15;92.92;93398.06;5119378;27;20203;-77
2022/11/17 10:02:12;;;;;;;9.60;6.17;;;;;;;14.10;94.05;93413.75;5124149;27;20594;-77
2022/11/17 10:04:39;;;;;;;10.17;4.13;;;;;;;14.20;92.82;93407.69;5132195;27;20206;-77
2022/11/17 10:07:06;;;;;;;7.37;3.17;;;;;;;14.15;93.05;93400.66;5130466;27;21087;-76
2022/11/17 10:09:38;;;;;;;3.37;2.30;;;;;;;14.18;93.04;93405.34;5135704;27;20198;-76
2022/11/17 10:12:18;;;;;;;8.57;3.20;;;;;;;14.10;93.54;93392.88;5133288;27;20610;-77
2022/11/17 10:14:46;;;;;;;4.00;2.73;;;;;;;14.17;93.56;93403.78;5135197;27;20210;-77
2022/11/17 10:17:13;;;;;;;4.10;2.60;;;;;;;14.17;93.92;93397.78;5132439;27;20191;-76
2022/11/17 10:19:40;;;;;;;5.47;2.13;;;;;;;14.26;93.54;93398.75;5135208;27;20258;-76
2022/11/17 10:22:19;;;;;;;6.97;3.87;;;;;;;14.31;93.72;93403.19;5129577;27;20276;-77
2022/11/17 10:24:49;;;;;;;8.93;5.00;;;;;;;14.27;94.08;93400.34;5134764;27;20231;-76
2022/11/17 10:27:22;;;;;;;9.77;5.90;;;;;;;14.26;94.46;93396.16;5128984;27;20264;-76
2022/11/17 10:30:00;;;;;;;13.17;9.40;;;;;;;14.31;94.83;93392.75;5131761;27;20199;-76
2022/11/17 10:32:28;;;;;;;6.50;5.47;;;;;;;14.33;93.58;93383.59;5130546;27;20199;-76
2022/11/17 10:34:55;;;;;;;8.90;4.93;;;;;;;14.36;94.56;93387.50;5132101;27;20201;-76
2022/11/17 10:37:26;;;;;;;7.43;3.97;;;;;;;14.48;94.54;93393.97;5128763;27;20622;-76
2022/11/17 10:40:12;;;;;;;4.93;2.30;;;;;;;14.62;94.24;93388.88;5127177;27;20282;-76
2022/11/17 10:42:52;;;;;;;3.23;1.90;;;;;;;14.71;95.30;93387.25;5132746;27;20186;-78
2022/11/17 10:45:20;;;;;;;7.37;2.57;;;;;;;15.90;92.08;93381.03;5127980;27;20203;-77
2022/11/17 10:47:47;;;;;;;2.83;1.80;;;;;;;16.73;87.45;93384.88;5129188;27;20195;-77
2022/11/17 10:50:26;;;;;;;5.93;3.63;;;;;;;16.89;86.59;93391.41;5126711;27;20199;-78
2022/11/17 10:52:55;;;;;;;3.60;2.30;;;;;;;16.65;86.79;93403.91;5132699;27;20191;-77
2022/11/17 10:55:27;;;;;;;5.00;2.90;;;;;;;16.71;87.15;93406.13;5132105;27;20194;-79
2022/11/17 10:58:02;;;;;;;7.77;4.30;;;;;;;16.69;87.36;93397.00;5132541;27;20199;-78
2022/11/17 11:00:31;;;;;;;4.83;3.60;;;;;;;16.60;86.95;93409.19;5132822;27;20194;-77
2022/11/17 11:03:06;;;;;;;6.37;2.80;;;;;;;16.30;87.56;93394.66;5132352;27;20645;-78
2022/11/17 11:05:33;;;;;;;2.43;2.10;;;;;;;16.09;89.11;93409.09;5134005;27;20223;-78
2022/11/17 11:08:18;;;;;;;3.33;2.10;;;;;;;15.74;89.92;93415.56;5132325;27;20196;-79
2022/11/17 11:10:50;;;;;;;4.07;2.60;;;;;;;15.42;91.56;93384.72;5134954;27;20192;-78
2022/11/17 11:13:26;;;;;;;3.60;2.17;;;;;;;16.10;90.85;93400.19;5136502;27;20279;-77
2022/11/17 11:15:53;;;;;;;4.47;3.10;;;;;;;16.92;88.37;93406.59;5131825;27;20207;-78
2022/11/17 11:18:21;;;;;;;3.47;2.17;;;;;;;17.94;83.99;93412.38;5131925;27;20959;-77
2022/11/17 11:20:58;;;;;;;2.67;2.03;;;;;;;18.83;79.89;93414.44;5134078;27;20195;-78
2022/11/17 11:23:37;;;;;;;4.93;2.37;;;;;;;19.02;77.91;93426.34;5133274;27;20557;-78
2022/11/17 11:26:17;;;;;;;2.60;1.77;;;;;;;18.75;78.04;93418.56;5137660;27;20214;-80
2022/11/17 11:28:59;;;;;;;2.17;1.53;;;;;;;18.36;78.87;93413.88;5144887;27;20222;-84
2022/11/17 11:31:36;;;;;;;2.70;1.70;;;;;;;18.45;79.11;93419.22;5144492;27;20194;-83
2022/11/17 11:34:14;;;;;;;2.87;1.80;;;;;;;17.94;80.26;93430.78;5144114;27;20268;-85
2022/11/17 11:36:44;;;;;;;4.60;2.30;;;;;;;18.04;81.41;93422.69;5134980;27;20206;-84
2022/11/17 11:39:27;;;;;;;3.37;2.23;;;;;;;18.42;80.03;93414.53;5135110;27;20567;-85
2022/11/17 11:42:21;;;;;;;1.60;1.40;;;;;;;18.77;78.60;93426.94;5133186;27;20195;-83
2022/11/17 11:45:13;;;;;;;2.63;1.70;;;;;;;18.60;78.70;93422.31;5140357;27;20175;-84
2022/11/17 11:47:57;;;;;;;2.87;2.00;;;;;;;18.27;80.47;93420.91;5144684;27;20212;-85
2022/11/17 11:50:25;;;;;;;3.77;2.50;;;;;;;18.07;81.54;93426.56;5147479;27;20198;-85
2022/11/17 11:52:59;;;;;;;2.73;1.97;;;;;;;17.44;82.95;93413.31;5136367;27;20214;-86
2022/11/17 11:55:32;;;;;;;2.60;2.23;;;;;;;17.12;85.36;93408.88;5144550;27;20275;-84
2022/11/17 11:58:12;;;;;;;2.87;2.00;;;;;;;17.29;84.87;93418.81;5139909;27;20235;-85
2022/11/17 12:00:41;;;;;;;4.40;2.03;;;;;;;17.11;85.35;93409.97;5140247;27;20633;-83
2022/11/17 12:03:19;;;;;;;4.83;2.87;;;;;;;16.90;86.52;93420.00;5142644;27;20192;-86
2022/11/17 12:05:58;;;;;;;1.60;1.50;;;;;;;16.68;87.45;93419.06;5144372;27;20347;-84
2022/11/17 12:08:32;;;;;;;2.93;2.10;;;;;;;16.22;89.95;93430.16;5132683;27;20286;-84
2022/11/17 12:11:59;;;;;;;4.00;2.40;;;;;;;16.01;91.33;93422.84;5138381;27;20183;-84